createdAt,value
2017-01-11T00:00:30.184Z,959.49
2017-01-11T00:01:38.876Z,959.51
2017-01-11T00:02:47.561Z,959.49
2017-01-11T00:03:56.255Z,959.44
2017-01-11T00:05:04.942Z,959.47
2017-01-11T00:06:13.631Z,959.41
2017-01-11T00:07:22.323Z,959.37
2017-01-11T00:08:31.012Z,959.37
2017-01-11T00:09:39.706Z,959.32
2017-01-11T00:10:48.397Z,959.28
2017-01-11T00:11:57.090Z,959.33
2017-01-11T00:13:05.782Z,959.32
2017-01-11T00:14:14.479Z,959.3
2017-01-11T00:15:23.168Z,959.13
2017-01-11T00:16:31.857Z,959.16
2017-01-11T00:17:40.550Z,959.08
2017-01-11T00:18:49.245Z,959.01
2017-01-11T00:19:57.933Z,959.05
2017-01-11T00:21:06.623Z,959.03
2017-01-11T00:22:15.310Z,958.99
2017-01-11T00:23:24.004Z,958.96
2017-01-11T00:24:32.694Z,958.95
2017-01-11T00:25:41.383Z,958.85
2017-01-11T00:26:50.068Z,958.91
2017-01-11T00:27:58.753Z,958.86
2017-01-11T00:29:07.446Z,958.6
2017-01-11T00:30:16.139Z,958.65
2017-01-11T00:31:24.841Z,958.6
2017-01-11T00:32:33.544Z,958.59
2017-01-11T00:33:42.239Z,958.6
2017-01-11T00:34:50.926Z,958.43
2017-01-11T00:35:59.620Z,958.45
2017-01-11T00:37:08.307Z,958.38
2017-01-11T00:38:16.997Z,958.44
2017-01-11T00:39:25.684Z,958.36
2017-01-11T00:40:34.372Z,958.44
2017-01-11T00:41:43.062Z,958.45
2017-01-11T00:42:51.755Z,958.46
2017-01-11T00:44:00.447Z,958.46
2017-01-11T00:45:09.138Z,958.43
2017-01-11T00:46:18.220Z,958.46
2017-01-11T00:47:26.913Z,958.47
2017-01-11T00:48:35.719Z,958.45
2017-01-11T00:49:44.429Z,958.47
2017-01-11T00:50:53.125Z,958.52
2017-01-11T00:52:01.814Z,958.5
2017-01-11T00:53:10.500Z,958.57
2017-01-11T00:54:19.187Z,958.58
2017-01-11T00:55:27.884Z,958.66
2017-01-11T00:56:36.574Z,958.55
2017-01-11T00:57:45.264Z,958.66
2017-01-11T00:58:53.955Z,958.63
2017-01-11T01:00:02.647Z,958.6
2017-01-11T01:01:11.337Z,958.52
2017-01-11T01:02:20.038Z,958.49
2017-01-11T01:03:28.728Z,958.44
2017-01-11T01:04:37.417Z,958.43
2017-01-11T01:05:46.107Z,958.43
2017-01-11T01:06:54.793Z,958.27
2017-01-11T01:08:03.487Z,958.34
2017-01-11T01:09:12.205Z,958.33
2017-01-11T01:10:20.894Z,958.3
2017-01-11T01:11:29.606Z,958.28
2017-01-11T01:12:38.299Z,958.28
2017-01-11T01:13:46.995Z,958.26
2017-01-11T01:14:55.688Z,958.24
2017-01-11T01:16:04.383Z,958.25
2017-01-11T01:17:13.077Z,958.15
2017-01-11T01:18:21.766Z,958.02
2017-01-11T01:19:30.455Z,958.11
2017-01-11T01:20:39.146Z,958.23
2017-01-11T01:21:47.837Z,958.21
2017-01-11T01:22:56.523Z,958.29
2017-01-11T01:24:05.211Z,958.16
2017-01-11T01:25:13.902Z,958.2
2017-01-11T01:26:22.589Z,958.19
2017-01-11T01:27:31.280Z,958.23
2017-01-11T01:28:39.969Z,958.29
2017-01-11T01:29:48.660Z,958.21
2017-01-11T01:30:57.352Z,958.16
2017-01-11T01:32:06.040Z,958.13
2017-01-11T01:33:14.729Z,958.02
2017-01-11T01:34:23.418Z,957.88
2017-01-11T01:35:32.114Z,957.77
2017-01-11T01:36:40.812Z,957.8
2017-01-11T01:37:49.498Z,957.78
2017-01-11T01:38:58.188Z,957.83
2017-01-11T01:40:06.901Z,957.8
2017-01-11T01:41:15.590Z,957.88
2017-01-11T01:42:24.276Z,957.79
2017-01-11T01:43:32.964Z,957.8
2017-01-11T01:44:41.653Z,957.87
2017-01-11T01:45:50.338Z,957.82
2017-01-11T01:46:59.025Z,957.87
2017-01-11T01:48:07.714Z,957.88
2017-01-11T01:49:16.402Z,957.86
2017-01-11T01:50:25.089Z,957.71
2017-01-11T01:51:33.782Z,957.69
2017-01-11T01:52:42.477Z,957.64
2017-01-11T01:53:51.172Z,957.62
2017-01-11T01:54:59.869Z,957.46
2017-01-11T01:56:08.559Z,957.35
2017-01-11T01:57:17.246Z,957.29
2017-01-11T01:58:25.935Z,957.27
2017-01-11T01:59:34.626Z,957.29
2017-01-11T02:00:43.317Z,957.18
2017-01-11T02:01:52.010Z,957.3
2017-01-11T02:03:00.701Z,957.15
2017-01-11T02:04:09.393Z,957.22
2017-01-11T02:05:18.114Z,957.19
2017-01-11T02:06:26.801Z,957.16
2017-01-11T02:07:35.497Z,957.12
2017-01-11T02:08:44.190Z,957.04
2017-01-11T02:09:52.905Z,956.94
2017-01-11T02:11:01.593Z,956.83
2017-01-11T02:12:10.281Z,956.78
2017-01-11T02:13:18.977Z,956.67
2017-01-11T02:14:27.670Z,956.63
2017-01-11T02:15:36.384Z,956.58
2017-01-11T02:16:45.097Z,956.57
2017-01-11T02:17:53.803Z,956.52
2017-01-11T02:19:02.494Z,956.59
2017-01-11T02:20:11.184Z,956.64
2017-01-11T02:21:19.872Z,956.67
2017-01-11T02:22:28.562Z,956.68
2017-01-11T02:23:37.254Z,956.62
2017-01-11T02:24:45.948Z,956.49
2017-01-11T02:25:54.692Z,956.55
2017-01-11T02:27:03.382Z,956.49
2017-01-11T02:28:12.068Z,956.46
2017-01-11T02:29:20.752Z,956.36
2017-01-11T02:30:29.437Z,956.37
2017-01-11T02:31:38.131Z,956.22
2017-01-11T02:32:46.819Z,956.41
2017-01-11T02:33:55.519Z,956.44
2017-01-11T02:35:04.211Z,956.38
2017-01-11T02:36:12.902Z,956.31
2017-01-11T02:37:21.591Z,956.36
2017-01-11T02:38:30.281Z,956.36
2017-01-11T02:39:38.972Z,956.2
2017-01-11T02:40:47.678Z,956.21
2017-01-11T02:41:56.374Z,956.18
2017-01-11T02:43:05.485Z,956.11
2017-01-11T02:44:14.177Z,956.07
2017-01-11T02:45:22.867Z,956.12
2017-01-11T02:46:31.556Z,956.02
2017-01-11T02:47:40.245Z,955.97
2017-01-11T02:48:48.936Z,955.88
2017-01-11T02:49:57.628Z,955.86
2017-01-11T02:51:06.325Z,955.75
2017-01-11T02:52:15.017Z,955.79
2017-01-11T02:53:23.711Z,955.76
2017-01-11T02:54:32.395Z,955.91
2017-01-11T02:55:41.083Z,955.92
2017-01-11T02:56:49.777Z,955.92
2017-01-11T02:57:58.464Z,956
2017-01-11T02:59:07.153Z,955.93
2017-01-11T03:00:15.843Z,956.02
2017-01-11T03:01:24.935Z,955.9
2017-01-11T03:02:33.623Z,955.94
2017-01-11T03:03:42.313Z,955.94
2017-01-11T03:04:51.006Z,955.9
2017-01-11T03:05:59.693Z,955.91
2017-01-11T03:07:08.385Z,955.88
2017-01-11T03:08:17.072Z,955.82
2017-01-11T03:09:25.755Z,955.8
2017-01-11T03:10:34.442Z,955.79
2017-01-11T03:11:43.134Z,955.61
2017-01-11T03:12:51.823Z,955.59
2017-01-11T03:14:00.514Z,955.58
2017-01-11T03:15:09.212Z,955.5
2017-01-11T03:16:17.901Z,955.52
2017-01-11T03:17:26.591Z,955.38
2017-01-11T03:18:35.282Z,955.42
2017-01-11T03:19:43.972Z,955.41
2017-01-11T03:20:52.659Z,955.41
2017-01-11T03:22:01.357Z,955.32
2017-01-11T03:23:10.048Z,955.33
2017-01-11T03:24:18.734Z,955.27
2017-01-11T03:25:27.425Z,955.24
2017-01-11T03:26:36.116Z,955.16
2017-01-11T03:27:44.802Z,955.09
2017-01-11T03:28:53.497Z,955.07
2017-01-11T03:30:02.186Z,955
2017-01-11T03:31:10.870Z,955.03
2017-01-11T03:32:19.562Z,954.94
2017-01-11T03:33:28.277Z,955.06
2017-01-11T03:34:36.967Z,954.92
2017-01-11T03:35:45.656Z,955.06
2017-01-11T03:36:54.352Z,954.88
2017-01-11T03:38:03.041Z,954.87
2017-01-11T03:39:11.736Z,954.87
2017-01-11T03:40:20.423Z,954.76
2017-01-11T03:41:29.115Z,954.66
2017-01-11T03:42:37.830Z,954.72
2017-01-11T03:43:46.519Z,954.56
2017-01-11T03:44:55.239Z,954.61
2017-01-11T03:46:03.928Z,954.59
2017-01-11T03:47:12.627Z,954.57
2017-01-11T03:48:21.315Z,954.47
2017-01-11T03:49:30.002Z,954.42
2017-01-11T03:50:38.689Z,954.44
2017-01-11T03:51:47.378Z,954.41
2017-01-11T03:52:56.064Z,954.29
2017-01-11T03:54:04.778Z,954.31
2017-01-11T03:55:13.477Z,954.33
2017-01-11T03:56:22.169Z,954.23
2017-01-11T03:57:30.863Z,954.21
2017-01-11T03:58:39.558Z,954.15
2017-01-11T03:59:48.259Z,954.08
2017-01-11T04:00:56.953Z,953.91
2017-01-11T04:02:05.644Z,953.92
2017-01-11T04:03:14.334Z,953.87
2017-01-11T04:04:23.029Z,953.86
2017-01-11T04:05:31.718Z,953.79
2017-01-11T04:06:40.411Z,953.72
2017-01-11T04:07:49.110Z,953.72
2017-01-11T04:08:57.805Z,953.69
2017-01-11T04:10:06.494Z,953.69
2017-01-11T04:11:15.181Z,953.62
2017-01-11T04:12:23.872Z,953.6
2017-01-11T04:13:32.567Z,953.58
2017-01-11T04:14:41.263Z,953.47
2017-01-11T04:15:49.961Z,953.61
2017-01-11T04:16:58.676Z,953.48
2017-01-11T04:18:07.371Z,953.39
2017-01-11T04:19:16.066Z,953.36
2017-01-11T04:20:24.759Z,953.3
2017-01-11T04:21:33.446Z,953.22
2017-01-11T04:22:42.139Z,953.2
2017-01-11T04:23:50.830Z,953.08
2017-01-11T04:24:59.520Z,953.03
2017-01-11T04:26:08.214Z,953.05
2017-01-11T04:27:16.900Z,952.95
2017-01-11T04:28:25.589Z,952.99
2017-01-11T04:29:34.277Z,952.92
2017-01-11T04:30:42.972Z,952.96
2017-01-11T04:31:51.667Z,952.88
2017-01-11T04:33:00.359Z,952.85
2017-01-11T04:34:09.047Z,952.85
2017-01-11T04:35:17.737Z,952.64
2017-01-11T04:36:26.428Z,952.72
2017-01-11T04:37:35.118Z,952.66
2017-01-11T04:38:43.805Z,952.64
2017-01-11T04:39:52.499Z,952.55
2017-01-11T04:41:01.189Z,952.54
2017-01-11T04:42:09.879Z,952.52
2017-01-11T04:43:18.570Z,952.44
2017-01-11T04:44:27.262Z,952.54
2017-01-11T04:45:35.955Z,952.5
2017-01-11T04:46:44.659Z,952.5
2017-01-11T04:47:53.352Z,952.53
2017-01-11T04:49:02.067Z,952.49
2017-01-11T04:50:10.751Z,952.48
2017-01-11T04:51:19.440Z,952.47
2017-01-11T04:52:28.131Z,952.53
2017-01-11T04:53:36.819Z,952.55
2017-01-11T04:54:45.507Z,952.54
2017-01-11T04:55:54.203Z,952.52
2017-01-11T04:57:02.890Z,952.63
2017-01-11T04:58:11.584Z,952.61
2017-01-11T04:59:20.276Z,952.65
2017-01-11T05:00:28.970Z,952.58
2017-01-11T05:01:37.659Z,952.57
2017-01-11T05:02:46.344Z,952.51
2017-01-11T05:03:55.032Z,952.55
2017-01-11T05:05:03.730Z,952.38
2017-01-11T05:06:12.422Z,952.39
2017-01-11T05:07:21.110Z,952.26
2017-01-11T05:08:29.796Z,952.28
2017-01-11T05:09:38.491Z,952.24
2017-01-11T05:10:47.184Z,952.15
2017-01-11T05:11:55.871Z,952.14
2017-01-11T05:13:04.565Z,952.07
2017-01-11T05:14:13.259Z,952.04
2017-01-11T05:15:21.946Z,951.92
2017-01-11T05:16:30.635Z,951.91
2017-01-11T05:17:39.321Z,951.98
2017-01-11T05:18:48.010Z,951.93
2017-01-11T05:19:56.699Z,951.8
2017-01-11T05:21:05.396Z,951.86
2017-01-11T05:22:14.091Z,951.84
2017-01-11T05:23:22.787Z,951.8
2017-01-11T05:24:31.476Z,951.75
2017-01-11T05:25:40.168Z,951.76
2017-01-11T05:26:48.862Z,951.73
2017-01-11T05:27:57.554Z,951.68
2017-01-11T05:29:06.244Z,951.7
2017-01-11T05:30:14.933Z,951.71
2017-01-11T05:31:23.628Z,951.62
2017-01-11T05:32:32.316Z,951.62
2017-01-11T05:33:41.006Z,951.53
2017-01-11T05:34:49.689Z,951.41
2017-01-11T05:35:58.380Z,951.48
2017-01-11T05:37:07.074Z,951.48
2017-01-11T05:38:15.757Z,951.39
2017-01-11T05:39:24.443Z,951.36
2017-01-11T05:40:33.136Z,951.36
2017-01-11T05:41:41.827Z,951.32
2017-01-11T05:42:50.915Z,951.34
2017-01-11T05:43:59.606Z,951.25
2017-01-11T05:45:08.293Z,951.23
2017-01-11T05:46:16.983Z,951.21
2017-01-11T05:47:25.671Z,951.18
2017-01-11T05:48:34.360Z,951.17
2017-01-11T05:49:43.048Z,951.17
2017-01-11T05:50:51.737Z,951.12
2017-01-11T05:52:00.429Z,951.08
2017-01-11T05:53:09.118Z,951.11
2017-01-11T05:54:17.807Z,951.05
2017-01-11T05:55:26.499Z,951
2017-01-11T05:56:35.196Z,950.97
2017-01-11T05:57:44.307Z,950.97
2017-01-11T05:58:52.997Z,950.91
2017-01-11T06:00:01.690Z,950.84
2017-01-11T06:01:10.385Z,950.84
2017-01-11T06:02:19.074Z,950.85
2017-01-11T06:03:27.766Z,950.68
2017-01-11T06:04:36.463Z,950.72
2017-01-11T06:05:45.180Z,950.65
2017-01-11T06:06:53.870Z,950.69
2017-01-11T06:08:02.564Z,950.71
2017-01-11T06:09:11.251Z,950.66
2017-01-11T06:10:19.935Z,950.59
2017-01-11T06:11:28.627Z,950.61
2017-01-11T06:12:37.316Z,950.6
2017-01-11T06:13:46.001Z,950.53
2017-01-11T06:14:54.736Z,950.52
2017-01-11T06:16:03.428Z,950.56
2017-01-11T06:17:12.119Z,950.44
2017-01-11T06:18:20.811Z,950.36
2017-01-11T06:19:29.498Z,950.36
2017-01-11T06:20:38.187Z,950.36
2017-01-11T06:21:46.878Z,950.31
2017-01-11T06:22:55.568Z,950.24
2017-01-11T06:24:04.259Z,950.17
2017-01-11T06:25:13.343Z,950.17
2017-01-11T06:26:22.030Z,950.1
2017-01-11T06:27:30.753Z,950.16
2017-01-11T06:28:39.446Z,950.05
2017-01-11T06:29:48.160Z,949.98
2017-01-11T06:30:56.848Z,949.98
2017-01-11T06:32:05.535Z,949.94
2017-01-11T06:33:14.228Z,949.83
2017-01-11T06:34:22.918Z,949.78
2017-01-11T06:35:32.000Z,949.77
2017-01-11T06:36:40.691Z,949.7
2017-01-11T06:37:49.385Z,949.68
2017-01-11T06:38:58.082Z,949.52
2017-01-11T06:40:06.770Z,949.41
2017-01-11T06:41:15.460Z,949.37
2017-01-11T06:42:24.159Z,949.36
2017-01-11T06:43:32.848Z,949.23
2017-01-11T06:44:41.538Z,949.2
2017-01-11T06:45:50.224Z,949.12
2017-01-11T06:46:58.920Z,949.07
2017-01-11T06:48:07.612Z,949.02
2017-01-11T06:49:16.333Z,948.98
2017-01-11T06:50:25.022Z,948.8
2017-01-11T06:51:33.710Z,948.92
2017-01-11T06:52:42.398Z,948.86
2017-01-11T06:53:51.084Z,948.85
2017-01-11T06:54:59.775Z,948.88
2017-01-11T06:56:08.472Z,948.82
2017-01-11T06:57:17.162Z,948.76
2017-01-11T06:58:25.849Z,948.82
2017-01-11T06:59:34.539Z,948.74
2017-01-11T07:00:43.238Z,948.74
2017-01-11T07:01:51.930Z,948.65
2017-01-11T07:03:00.622Z,948.68
2017-01-11T07:04:09.320Z,948.6
2017-01-11T07:05:18.012Z,948.5
2017-01-11T07:06:26.779Z,948.48
2017-01-11T07:07:35.474Z,948.53
2017-01-11T07:08:44.165Z,948.43
2017-01-11T07:09:52.857Z,948.23
2017-01-11T07:11:01.552Z,948.32
2017-01-11T07:12:10.247Z,948.36
2017-01-11T07:13:32.468Z,948.36
2017-01-11T07:14:41.176Z,948.33
2017-01-11T07:15:49.866Z,948.39
2017-01-11T07:16:58.563Z,948.37
2017-01-11T07:18:07.254Z,948.27
2017-01-11T07:19:15.945Z,948.27
2017-01-11T07:20:24.637Z,948.27
2017-01-11T07:21:33.328Z,948.26
2017-01-11T07:22:42.045Z,948.22
2017-01-11T07:23:51.148Z,948.24
2017-01-11T07:24:59.889Z,948.12
2017-01-11T07:26:08.581Z,948.23
2017-01-11T07:27:17.667Z,948.22
2017-01-11T07:28:26.357Z,948.14
2017-01-11T07:29:35.047Z,948.1
2017-01-11T07:30:43.735Z,948.08
2017-01-11T07:31:52.428Z,947.98
2017-01-11T07:33:01.150Z,947.96
2017-01-11T07:34:09.844Z,947.87
2017-01-11T07:35:18.533Z,947.87
2017-01-11T07:36:27.225Z,947.86
2017-01-11T07:37:35.915Z,947.87
2017-01-11T07:38:44.604Z,947.8
2017-01-11T07:39:53.295Z,947.85
2017-01-11T07:41:01.985Z,947.74
2017-01-11T07:42:10.705Z,947.69
2017-01-11T07:43:19.422Z,947.67
2017-01-11T07:44:28.112Z,947.61
2017-01-11T07:45:36.819Z,947.54
2017-01-11T07:46:45.513Z,947.58
2017-01-11T07:47:54.200Z,947.52
2017-01-11T07:49:02.892Z,947.48
2017-01-11T07:50:11.590Z,947.38
2017-01-11T07:51:20.282Z,947.34
2017-01-11T07:52:28.978Z,947.26
2017-01-11T07:53:37.670Z,947.25
2017-01-11T07:54:46.386Z,947.27
2017-01-11T07:55:55.079Z,947.28
2017-01-11T07:57:03.768Z,947.2
2017-01-11T07:58:12.470Z,947.16
2017-01-11T07:59:21.157Z,947.11
2017-01-11T08:00:29.866Z,947.12
2017-01-11T08:01:38.559Z,947.15
2017-01-11T08:02:47.248Z,947.01
2017-01-11T08:03:55.937Z,947.09
2017-01-11T08:05:04.633Z,946.94
2017-01-11T08:06:13.352Z,946.9
2017-01-11T08:07:22.048Z,946.9
2017-01-11T08:08:30.736Z,946.86
2017-01-11T08:09:39.423Z,946.86
2017-01-11T08:10:48.114Z,946.84
2017-01-11T08:11:56.802Z,946.82
2017-01-11T08:13:05.494Z,946.69
2017-01-11T08:14:14.185Z,946.79
2017-01-11T08:15:22.897Z,946.65
2017-01-11T08:16:31.581Z,946.83
2017-01-11T08:17:40.273Z,946.78
2017-01-11T08:18:48.962Z,946.9
2017-01-11T08:19:57.652Z,946.77
2017-01-11T08:21:06.341Z,946.68
2017-01-11T08:22:15.068Z,946.75
2017-01-11T08:23:23.757Z,946.65
2017-01-11T08:24:32.449Z,946.55
2017-01-11T08:25:41.171Z,946.56
2017-01-11T08:26:49.867Z,946.54
2017-01-11T08:27:58.558Z,946.57
2017-01-11T08:29:07.253Z,946.52
2017-01-11T08:30:15.953Z,946.44
2017-01-11T08:31:24.640Z,946.42
2017-01-11T08:32:33.325Z,946.33
2017-01-11T08:33:42.011Z,946.3
2017-01-11T08:34:50.701Z,946.27
2017-01-11T08:35:59.409Z,946.36
2017-01-11T08:37:08.117Z,946.24
2017-01-11T08:38:16.813Z,946.29
2017-01-11T08:39:25.503Z,946.3
2017-01-11T08:40:34.195Z,946.29
2017-01-11T08:41:42.885Z,946.27
2017-01-11T08:42:51.574Z,946.22
2017-01-11T08:44:00.661Z,946.11
2017-01-11T08:45:09.360Z,946.13
2017-01-11T08:46:18.047Z,946.08
2017-01-11T08:47:26.741Z,946.05
2017-01-11T08:48:35.432Z,946.04
2017-01-11T08:49:44.117Z,946.02
2017-01-11T08:50:52.806Z,946.02
2017-01-11T08:52:01.502Z,946
2017-01-11T08:53:10.193Z,945.97
2017-01-11T08:54:18.882Z,945.92
2017-01-11T08:55:27.568Z,945.92
2017-01-11T08:56:36.260Z,945.99
2017-01-11T08:57:44.957Z,945.81
2017-01-11T08:58:53.643Z,945.77
2017-01-11T09:00:02.333Z,945.84
2017-01-11T09:01:11.020Z,945.66
2017-01-11T09:02:19.721Z,945.68
2017-01-11T09:03:28.412Z,945.68
2017-01-11T09:04:37.103Z,945.61
2017-01-11T09:05:45.794Z,945.72
2017-01-11T09:06:54.518Z,945.54
2017-01-11T09:08:03.221Z,945.5
2017-01-11T09:09:11.910Z,945.49
2017-01-11T09:10:20.601Z,945.46
2017-01-11T09:11:29.293Z,945.39
2017-01-11T09:12:38.386Z,945.41
2017-01-11T09:13:47.079Z,945.32
2017-01-11T09:14:55.771Z,945.25
2017-01-11T09:16:04.490Z,945.34
2017-01-11T09:17:13.180Z,945.18
2017-01-11T09:18:21.877Z,945.13
2017-01-11T09:19:30.571Z,945.09
2017-01-11T09:20:39.261Z,944.99
2017-01-11T09:21:48.344Z,945
2017-01-11T09:22:57.031Z,944.95
2017-01-11T09:24:05.722Z,944.88
2017-01-11T09:25:14.419Z,944.91
2017-01-11T09:26:23.106Z,944.79
2017-01-11T09:27:31.803Z,944.89
2017-01-11T09:28:40.502Z,944.87
2017-01-11T09:29:49.190Z,944.75
2017-01-11T09:30:57.885Z,944.8
2017-01-11T09:32:06.577Z,944.81
2017-01-11T09:33:15.268Z,944.58
2017-01-11T09:34:23.974Z,944.53
2017-01-11T09:35:32.667Z,944.66
2017-01-11T09:36:41.380Z,944.64
2017-01-11T09:37:50.068Z,944.46
2017-01-11T09:38:58.759Z,944.54
2017-01-11T09:40:07.474Z,944.4
2017-01-11T09:41:16.166Z,944.49
2017-01-11T09:42:24.874Z,944.48
2017-01-11T09:43:33.586Z,944.37
2017-01-11T09:44:42.273Z,944.4
2017-01-11T09:45:50.968Z,944.25
2017-01-11T09:46:59.658Z,944.24
2017-01-11T09:48:08.375Z,944.26
2017-01-11T09:49:17.063Z,944.13
2017-01-11T09:50:25.752Z,944.15
2017-01-11T09:51:34.440Z,944.11
2017-01-11T09:52:43.141Z,944.1
2017-01-11T09:53:51.829Z,944.05
2017-01-11T09:55:00.518Z,944.08
2017-01-11T09:56:09.207Z,944.01
2017-01-11T09:57:17.894Z,944.02
2017-01-11T09:58:26.588Z,943.9
2017-01-11T09:59:35.282Z,943.87
2017-01-11T10:00:43.969Z,943.9
2017-01-11T10:01:52.655Z,943.9
2017-01-11T10:03:01.347Z,943.82
2017-01-11T10:04:10.461Z,943.78
2017-01-11T10:05:19.145Z,943.77
2017-01-11T10:06:27.835Z,943.78
2017-01-11T10:07:36.524Z,943.81
2017-01-11T10:08:45.212Z,943.57
2017-01-11T10:09:53.898Z,943.64
2017-01-11T10:11:02.589Z,943.61
2017-01-11T10:12:11.287Z,943.6
2017-01-11T10:13:19.974Z,943.53
2017-01-11T10:14:28.664Z,943.54
2017-01-11T10:15:37.358Z,943.44
2017-01-11T10:16:46.045Z,943.43
2017-01-11T10:17:54.734Z,943.35
2017-01-11T10:19:03.455Z,943.31
2017-01-11T10:20:12.150Z,943.34
2017-01-11T10:21:20.840Z,943.28
2017-01-11T10:22:29.530Z,943.23
2017-01-11T10:23:38.225Z,943.24
2017-01-11T10:24:46.914Z,943.2
2017-01-11T10:25:55.605Z,943.18
2017-01-11T10:27:04.296Z,943.1
2017-01-11T10:28:12.983Z,943.04
2017-01-11T10:29:21.669Z,942.99
2017-01-11T10:30:30.356Z,942.88
2017-01-11T10:31:39.059Z,942.93
2017-01-11T10:32:47.750Z,942.8
2017-01-11T10:33:56.441Z,942.83
2017-01-11T10:35:05.129Z,942.68
2017-01-11T10:36:13.816Z,942.55
2017-01-11T10:37:22.504Z,942.63
2017-01-11T10:38:31.189Z,942.53
2017-01-11T10:39:39.876Z,942.61
2017-01-11T10:40:48.565Z,942.58
2017-01-11T10:41:57.259Z,942.58
2017-01-11T10:43:05.949Z,942.48
2017-01-11T10:44:14.642Z,942.44
2017-01-11T10:45:23.337Z,942.34
2017-01-11T10:46:32.030Z,942.36
2017-01-11T10:47:40.719Z,942.23
2017-01-11T10:48:49.411Z,942.26
2017-01-11T10:49:58.100Z,942.36
2017-01-11T10:51:06.789Z,942.22
2017-01-11T10:52:15.477Z,942.19
2017-01-11T10:53:24.170Z,942.16
2017-01-11T10:54:32.861Z,942.17
2017-01-11T10:55:41.550Z,942.26
2017-01-11T10:56:50.241Z,942.12
2017-01-11T10:57:58.930Z,942.08
2017-01-11T10:59:07.619Z,941.98
2017-01-11T11:00:16.309Z,941.86
2017-01-11T11:01:24.996Z,941.9
2017-01-11T11:02:33.682Z,941.83
2017-01-11T11:03:42.372Z,941.8
2017-01-11T11:04:51.065Z,941.82
2017-01-11T11:05:59.753Z,941.81
2017-01-11T11:07:08.443Z,941.63
2017-01-11T11:08:17.138Z,941.66
2017-01-11T11:09:25.870Z,941.57
2017-01-11T11:10:34.555Z,941.55
2017-01-11T11:11:43.242Z,941.57
2017-01-11T11:12:51.962Z,941.51
2017-01-11T11:14:00.655Z,941.46
2017-01-11T11:15:09.339Z,941.39
2017-01-11T11:16:18.027Z,941.37
2017-01-11T11:17:26.716Z,941.29
2017-01-11T11:18:35.789Z,941.26
2017-01-11T11:19:44.475Z,941.21
2017-01-11T11:20:53.167Z,941.21
2017-01-11T11:22:01.853Z,941.1
2017-01-11T11:23:10.548Z,941.1
2017-01-11T11:24:19.237Z,941.13
2017-01-11T11:25:27.925Z,941.14
2017-01-11T11:26:36.617Z,941.12
2017-01-11T11:27:45.313Z,941.1
2017-01-11T11:28:54.007Z,941
2017-01-11T11:30:02.731Z,940.99
2017-01-11T11:31:11.419Z,940.95
2017-01-11T11:32:20.113Z,940.95
2017-01-11T11:33:28.808Z,940.99
2017-01-11T11:34:37.498Z,940.91
2017-01-11T11:35:46.191Z,940.9
2017-01-11T11:36:54.885Z,940.87
2017-01-11T11:38:03.992Z,940.86
2017-01-11T11:39:12.672Z,940.83
2017-01-11T11:40:21.356Z,940.81
2017-01-11T11:41:30.044Z,940.7
2017-01-11T11:42:38.737Z,940.67
2017-01-11T11:43:47.428Z,940.6
2017-01-11T11:44:56.524Z,940.55
2017-01-11T11:46:05.213Z,940.49
2017-01-11T11:47:14.304Z,940.32
2017-01-11T11:48:22.994Z,940.37
2017-01-11T11:49:31.682Z,940.28
2017-01-11T11:50:40.368Z,940.27
2017-01-11T11:51:49.056Z,940.16
2017-01-11T11:52:57.744Z,940.11
2017-01-11T11:54:06.439Z,940.11
2017-01-11T11:55:15.131Z,940.02
2017-01-11T11:56:23.824Z,939.9
2017-01-11T11:57:32.509Z,939.9
2017-01-11T11:58:41.223Z,940
2017-01-11T11:59:49.908Z,939.92
2017-01-11T12:00:58.599Z,939.84
2017-01-11T12:02:07.289Z,939.93
2017-01-11T12:03:16.005Z,939.97
2017-01-11T12:04:24.693Z,939.88
2017-01-11T12:05:33.377Z,939.87
2017-01-11T12:06:42.066Z,939.82
2017-01-11T12:07:50.760Z,939.88
2017-01-11T12:08:59.472Z,939.79
2017-01-11T12:10:08.163Z,939.88
2017-01-11T12:11:16.879Z,939.83
2017-01-11T12:12:25.577Z,939.96
2017-01-11T12:13:34.273Z,939.89
2017-01-11T12:14:42.960Z,939.9
2017-01-11T12:15:51.655Z,939.9
2017-01-11T12:17:00.340Z,939.85
2017-01-11T12:18:09.035Z,939.77
2017-01-11T12:19:17.730Z,939.76
2017-01-11T12:20:26.419Z,939.68
2017-01-11T12:21:35.105Z,939.78
2017-01-11T12:22:43.792Z,939.72
2017-01-11T12:23:52.483Z,939.66
2017-01-11T12:25:01.174Z,939.58
2017-01-11T12:26:09.863Z,939.64
2017-01-11T12:27:18.552Z,939.65
2017-01-11T12:28:27.645Z,939.53
2017-01-11T12:29:36.343Z,939.41
2017-01-11T12:30:45.030Z,939.47
2017-01-11T12:31:53.720Z,939.51
2017-01-11T12:33:02.443Z,939.47
2017-01-11T12:34:11.134Z,939.39
2017-01-11T12:35:19.824Z,939.46
2017-01-11T12:36:28.514Z,939.4
2017-01-11T12:37:37.205Z,939.34
2017-01-11T12:38:45.907Z,939.32
2017-01-11T12:39:54.597Z,939.35
2017-01-11T12:41:03.291Z,939.28
2017-01-11T12:42:11.983Z,939.26
2017-01-11T12:43:20.675Z,939.29
2017-01-11T12:44:29.368Z,939.18
2017-01-11T12:45:38.062Z,939.11
2017-01-11T12:46:46.764Z,939.13
2017-01-11T12:47:55.454Z,939.13
2017-01-11T12:49:04.145Z,939.09
2017-01-11T12:50:12.840Z,939.05
2017-01-11T12:51:21.536Z,939.01
2017-01-11T12:52:30.226Z,939.01
2017-01-11T12:53:38.918Z,938.97
2017-01-11T12:54:47.632Z,939.01
2017-01-11T12:55:56.320Z,938.95
2017-01-11T12:57:05.025Z,938.92
2017-01-11T12:58:13.714Z,938.91
2017-01-11T12:59:22.408Z,938.9
2017-01-11T13:00:31.098Z,938.86
2017-01-11T13:01:39.784Z,938.79
2017-01-11T13:02:48.481Z,938.83
2017-01-11T13:03:57.169Z,938.68
2017-01-11T13:05:05.873Z,938.78
2017-01-11T13:06:14.560Z,938.78
2017-01-11T13:07:23.260Z,938.76
2017-01-11T13:08:32.339Z,938.71
2017-01-11T13:09:41.033Z,938.73
2017-01-11T13:10:49.718Z,938.7
2017-01-11T13:11:58.408Z,938.72
2017-01-11T13:13:07.102Z,938.68
2017-01-11T13:14:15.797Z,938.63
2017-01-11T13:15:24.502Z,938.57
2017-01-11T13:16:33.192Z,938.6
2017-01-11T13:17:41.879Z,938.57
2017-01-11T13:18:50.573Z,938.56
2017-01-11T13:19:59.267Z,938.59
2017-01-11T13:21:07.962Z,938.47
2017-01-11T13:22:16.656Z,938.45
2017-01-11T13:23:25.348Z,938.49
2017-01-11T13:24:34.056Z,938.46
2017-01-11T13:25:43.148Z,938.37
2017-01-11T13:26:51.836Z,938.38
2017-01-11T13:28:00.562Z,938.38
2017-01-11T13:29:09.279Z,938.35
2017-01-11T13:30:17.974Z,938.34
2017-01-11T13:31:26.689Z,938.27
2017-01-11T13:32:35.408Z,938.25
2017-01-11T13:33:44.098Z,938.31
2017-01-11T13:34:52.787Z,938.3
2017-01-11T13:36:01.472Z,938.29
2017-01-11T13:37:10.212Z,938.3
2017-01-11T13:38:18.903Z,938.29
2017-01-11T13:39:27.595Z,938.28
2017-01-11T13:40:36.284Z,938.27
2017-01-11T13:41:44.973Z,938.28
2017-01-11T13:42:53.665Z,938.24
2017-01-11T13:44:02.358Z,938.24
2017-01-11T13:45:11.051Z,938.17
2017-01-11T13:46:19.742Z,938.15
2017-01-11T13:47:28.439Z,938.11
2017-01-11T13:48:37.150Z,938.14
2017-01-11T13:49:45.843Z,938.12
2017-01-11T13:50:54.565Z,938.05
2017-01-11T13:52:03.653Z,938.02
2017-01-11T13:53:12.348Z,938.03
2017-01-11T13:54:21.047Z,938.04
2017-01-11T13:55:29.734Z,938.06
2017-01-11T13:56:38.425Z,937.97
2017-01-11T13:57:47.116Z,937.94
2017-01-11T13:58:55.806Z,937.99
2017-01-11T14:00:04.496Z,937.96
2017-01-11T14:01:13.189Z,937.93
2017-01-11T14:02:21.874Z,937.91
2017-01-11T14:03:30.565Z,937.89
2017-01-11T14:04:39.256Z,937.85
2017-01-11T14:05:47.948Z,937.85
2017-01-11T14:06:56.640Z,937.86
2017-01-11T14:08:05.331Z,937.85
2017-01-11T14:09:14.023Z,937.85
2017-01-11T14:10:22.711Z,937.81
2017-01-11T14:11:31.401Z,937.8
2017-01-11T14:12:40.090Z,937.79
2017-01-11T14:13:48.782Z,937.75
2017-01-11T14:14:57.481Z,937.74
2017-01-11T14:16:06.176Z,937.74
2017-01-11T14:17:14.873Z,937.72
2017-01-11T14:18:23.567Z,937.7
2017-01-11T14:19:32.263Z,937.66
2017-01-11T14:20:40.957Z,937.63